sensor_id;sensor_type;location;lat;lon;timestamp;temperature;humidity
18173;DHT22;9211;48.818;9.312;2022-12-13T00:01:28;-4.00;99.90
18173;DHT22;9211;48.818;9.312;2022-12-13T00:03:57;-4.00;99.90
18173;DHT22;9211;48.818;9.312;2022-12-13T00:06:24;-4.00;99.90
18173;DHT22;9211;48.818;9.312;2022-12-13T00:08:52;-4.00;99.90
18173;DHT22;9211;48.818;9.312;2022-12-13T00:11:19;-4.00;99.90
18173;DHT22;9211;48.818;9.312;2022-12-13T00:13:47;-4.10;99.90
18173;DHT22;9211;48.818;9.312;2022-12-13T00:16:16;-4.20;99.90
18173;DHT22;9211;48.818;9.312;2022-12-13T00:18:46;-4.40;99.90
18173;DHT22;9211;48.818;9.312;2022-12-13T00:21:16;-4.20;99.90
18173;DHT22;9211;48.818;9.312;2022-12-13T00:23:44;-4.20;99.90
18173;DHT22;9211;48.818;9.312;2022-12-13T00:26:14;-4.20;99.90
18173;DHT22;9211;48.818;9.312;2022-12-13T00:28:41;-4.20;99.90
18173;DHT22;9211;48.818;9.312;2022-12-13T00:31:08;-4.30;99.90
18173;DHT22;9211;48.818;9.312;2022-12-13T00:33:37;-4.30;99.90
18173;DHT22;9211;48.818;9.312;2022-12-13T00:36:06;-4.30;99.90
18173;DHT22;9211;48.818;9.312;2022-12-13T00:38:33;-4.30;99.90
18173;DHT22;9211;48.818;9.312;2022-12-13T00:41:09;-4.30;99.90
18173;DHT22;9211;48.818;9.312;2022-12-13T00:43:36;-4.30;99.90
18173;DHT22;9211;48.818;9.312;2022-12-13T00:46:06;-4.20;99.90
18173;DHT22;9211;48.818;9.312;2022-12-13T00:48:34;-4.30;99.90
18173;DHT22;9211;48.818;9.312;2022-12-13T00:51:06;-4.40;99.90
18173;DHT22;9211;48.818;9.312;2022-12-13T00:53:33;-4.50;99.90
18173;DHT22;9211;48.818;9.312;2022-12-13T00:56:00;-4.50;99.90
18173;DHT22;9211;48.818;9.312;2022-12-13T00:58:27;-4.60;99.90
18173;DHT22;9211;48.818;9.312;2022-12-13T01:01:04;-4.50;99.90
18173;DHT22;9211;48.818;9.312;2022-12-13T01:03:31;-4.50;99.90
18173;DHT22;9211;48.818;9.312;2022-12-13T01:05:59;-4.50;99.90
18173;DHT22;9211;48.818;9.312;2022-12-13T01:08:27;-4.60;99.90
18173;DHT22;9211;48.818;9.312;2022-12-13T01:10:54;-4.50;99.90
18173;DHT22;9211;48.818;9.312;2022-12-13T01:13:21;-4.40;99.90
18173;DHT22;9211;48.818;9.312;2022-12-13T01:15:48;-4.40;99.90
18173;DHT22;9211;48.818;9.312;2022-12-13T01:18:15;-4.50;99.90
18173;DHT22;9211;48.818;9.312;2022-12-13T01:20:55;-4.60;99.90
18173;DHT22;9211;48.818;9.312;2022-12-13T01:23:23;-4.60;99.90
18173;DHT22;9211;48.818;9.312;2022-12-13T01:25:51;-4.80;99.90
18173;DHT22;9211;48.818;9.312;2022-12-13T01:28:18;-4.90;99.90
18173;DHT22;9211;48.818;9.312;2022-12-13T01:30:53;-4.90;99.90
18173;DHT22;9211;48.818;9.312;2022-12-13T01:33:20;-4.80;99.90
18173;DHT22;9211;48.818;9.312;2022-12-13T01:35:47;-4.80;99.90
18173;DHT22;9211;48.818;9.312;2022-12-13T01:38:14;-4.80;99.90
18173;DHT22;9211;48.818;9.312;2022-12-13T01:40:44;-4.80;99.90
18173;DHT22;9211;48.818;9.312;2022-12-13T01:43:20;-4.80;99.90
18173;DHT22;9211;48.818;9.312;2022-12-13T01:45:48;-4.80;99.90
18173;DHT22;9211;48.818;9.312;2022-12-13T01:48:18;-4.80;99.90
18173;DHT22;9211;48.818;9.312;2022-12-13T01:50:48;-4.90;99.90
18173;DHT22;9211;48.818;9.312;2022-12-13T01:53:19;-4.80;99.90
18173;DHT22;9211;48.818;9.312;2022-12-13T01:55:50;-4.80;99.90
18173;DHT22;9211;48.818;9.312;2022-12-13T01:58:20;-4.70;99.90
18173;DHT22;9211;48.818;9.312;2022-12-13T02:00:48;-4.80;99.90
18173;DHT22;9211;48.818;9.312;2022-12-13T02:03:16;-4.70;99.90
18173;DHT22;9211;48.818;9.312;2022-12-13T02:05:49;-4.90;99.90
18173;DHT22;9211;48.818;9.312;2022-12-13T02:08:19;-4.90;99.90
18173;DHT22;9211;48.818;9.312;2022-12-13T02:10:47;-4.90;99.90
18173;DHT22;9211;48.818;9.312;2022-12-13T02:13:14;-4.90;99.90
18173;DHT22;9211;48.818;9.312;2022-12-13T02:15:48;-4.90;99.90
18173;DHT22;9211;48.818;9.312;2022-12-13T02:18:34;-4.80;99.90
18173;DHT22;9211;48.818;9.312;2022-12-13T02:21:18;-4.90;99.90
18173;DHT22;9211;48.818;9.312;2022-12-13T02:32:54;-4.90;99.90
18173;DHT22;9211;48.818;9.312;2022-12-13T02:35:25;-4.90;99.90
18173;DHT22;9211;48.818;9.312;2022-12-13T02:37:59;-4.90;99.90
18173;DHT22;9211;48.818;9.312;2022-12-13T02:40:33;-4.90;99.90
18173;DHT22;9211;48.818;9.312;2022-12-13T02:43:05;-4.80;99.90
18173;DHT22;9211;48.818;9.312;2022-12-13T02:45:38;-4.70;99.90
18173;DHT22;9211;48.818;9.312;2022-12-13T02:48:10;-4.70;99.90
18173;DHT22;9211;48.818;9.312;2022-12-13T02:50:38;-4.60;99.90
18173;DHT22;9211;48.818;9.312;2022-12-13T02:53:07;-4.70;99.90
18173;DHT22;9211;48.818;9.312;2022-12-13T02:55:37;-4.70;99.90
18173;DHT22;9211;48.818;9.312;2022-12-13T02:58:04;-4.60;99.90
18173;DHT22;9211;48.818;9.312;2022-12-13T03:03:14;-4.60;99.90
18173;DHT22;9211;48.818;9.312;2022-12-13T03:05:50;-4.70;99.90
18173;DHT22;9211;48.818;9.312;2022-12-13T03:08:46;-4.60;99.90
18173;DHT22;9211;48.818;9.312;2022-12-13T03:11:21;-4.60;99.90
18173;DHT22;9211;48.818;9.312;2022-12-13T03:13:51;-4.60;99.90
18173;DHT22;9211;48.818;9.312;2022-12-13T03:16:24;-4.60;99.90
18173;DHT22;9211;48.818;9.312;2022-12-13T03:18:57;-4.60;99.90
18173;DHT22;9211;48.818;9.312;2022-12-13T03:21:25;-4.60;99.90
18173;DHT22;9211;48.818;9.312;2022-12-13T03:23:52;-4.70;99.90
18173;DHT22;9211;48.818;9.312;2022-12-13T03:26:21;-4.70;99.90
18173;DHT22;9211;48.818;9.312;2022-12-13T03:28:48;-4.70;99.90
18173;DHT22;9211;48.818;9.312;2022-12-13T03:31:15;-4.70;99.90
18173;DHT22;9211;48.818;9.312;2022-12-13T03:33:42;-4.70;99.90
18173;DHT22;9211;48.818;9.312;2022-12-13T03:36:11;-4.70;99.90
18173;DHT22;9211;48.818;9.312;2022-12-13T03:38:38;-4.70;99.90
18173;DHT22;9211;48.818;9.312;2022-12-13T03:41:07;-4.80;99.90
18173;DHT22;9211;48.818;9.312;2022-12-13T03:43:35;-4.70;99.90
18173;DHT22;9211;48.818;9.312;2022-12-13T03:46:02;-4.80;99.90
18173;DHT22;9211;48.818;9.312;2022-12-13T03:48:29;-4.90;99.90
18173;DHT22;9211;48.818;9.312;2022-12-13T03:50:56;-4.80;99.90
18173;DHT22;9211;48.818;9.312;2022-12-13T03:53:25;-4.80;99.90
18173;DHT22;9211;48.818;9.312;2022-12-13T03:55:52;-4.70;99.90
18173;DHT22;9211;48.818;9.312;2022-12-13T03:58:19;-4.60;99.90
18173;DHT22;9211;48.818;9.312;2022-12-13T04:00:46;-4.60;99.90
18173;DHT22;9211;48.818;9.312;2022-12-13T04:03:14;-4.70;99.90
18173;DHT22;9211;48.818;9.312;2022-12-13T04:05:41;-4.80;99.90
18173;DHT22;9211;48.818;9.312;2022-12-13T04:08:08;-4.70;99.90
18173;DHT22;9211;48.818;9.312;2022-12-13T04:10:36;-4.70;99.90
18173;DHT22;9211;48.818;9.312;2022-12-13T04:13:04;-4.90;99.90
18173;DHT22;9211;48.818;9.312;2022-12-13T04:16:03;-4.90;99.90
18173;DHT22;9211;48.818;9.312;2022-12-13T04:18:30;-4.90;99.90
18173;DHT22;9211;48.818;9.312;2022-12-13T04:20:57;-4.90;99.90
18173;DHT22;9211;48.818;9.312;2022-12-13T04:23:24;-4.90;99.90
18173;DHT22;9211;48.818;9.312;2022-12-13T04:25:52;-4.90;99.90
18173;DHT22;9211;48.818;9.312;2022-12-13T04:28:19;-4.80;99.90
18173;DHT22;9211;48.818;9.312;2022-12-13T04:30:46;-4.90;99.90
18173;DHT22;9211;48.818;9.312;2022-12-13T04:33:13;-4.90;99.90
18173;DHT22;9211;48.818;9.312;2022-12-13T04:35:40;-4.90;99.90
18173;DHT22;9211;48.818;9.312;2022-12-13T04:38:07;-4.90;99.90
18173;DHT22;9211;48.818;9.312;2022-12-13T04:40:34;-4.90;99.90
18173;DHT22;9211;48.818;9.312;2022-12-13T04:43:03;-5.00;99.90
18173;DHT22;9211;48.818;9.312;2022-12-13T04:45:30;-5.10;99.90
18173;DHT22;9211;48.818;9.312;2022-12-13T04:47:57;-5.10;99.90
18173;DHT22;9211;48.818;9.312;2022-12-13T04:50:24;-5.10;99.90
18173;DHT22;9211;48.818;9.312;2022-12-13T04:52:51;-5.00;99.90
18173;DHT22;9211;48.818;9.312;2022-12-13T04:55:18;-5.00;99.90
18173;DHT22;9211;48.818;9.312;2022-12-13T04:57:45;-5.00;99.90
18173;DHT22;9211;48.818;9.312;2022-12-13T05:00:14;-5.00;99.90
18173;DHT22;9211;48.818;9.312;2022-12-13T05:02:41;-5.00;99.90
18173;DHT22;9211;48.818;9.312;2022-12-13T05:05:09;-5.00;99.90
18173;DHT22;9211;48.818;9.312;2022-12-13T05:07:37;-5.00;99.90
18173;DHT22;9211;48.818;9.312;2022-12-13T05:10:04;-4.90;99.90
18173;DHT22;9211;48.818;9.312;2022-12-13T05:12:32;-4.80;99.90
18173;DHT22;9211;48.818;9.312;2022-12-13T05:14:59;-4.80;99.90
18173;DHT22;9211;48.818;9.312;2022-12-13T05:17:27;-4.60;99.90
18173;DHT22;9211;48.818;9.312;2022-12-13T05:19:54;-4.60;99.90
18173;DHT22;9211;48.818;9.312;2022-12-13T05:22:21;-4.60;99.90
18173;DHT22;9211;48.818;9.312;2022-12-13T05:24:48;-4.60;99.90
18173;DHT22;9211;48.818;9.312;2022-12-13T05:27:15;-4.60;99.90
18173;DHT22;9211;48.818;9.312;2022-12-13T05:29:42;-4.70;99.90
18173;DHT22;9211;48.818;9.312;2022-12-13T05:32:09;-4.70;99.90
18173;DHT22;9211;48.818;9.312;2022-12-13T05:34:37;-4.80;99.90
18173;DHT22;9211;48.818;9.312;2022-12-13T05:37:04;-4.80;99.90
18173;DHT22;9211;48.818;9.312;2022-12-13T05:39:31;-4.90;99.90
18173;DHT22;9211;48.818;9.312;2022-12-13T05:41:58;-4.80;99.90
18173;DHT22;9211;48.818;9.312;2022-12-13T05:44:25;-4.80;99.90
18173;DHT22;9211;48.818;9.312;2022-12-13T05:46:52;-4.80;99.90
18173;DHT22;9211;48.818;9.312;2022-12-13T05:49:19;-4.80;99.90
18173;DHT22;9211;48.818;9.312;2022-12-13T05:51:48;-4.80;99.90
18173;DHT22;9211;48.818;9.312;2022-12-13T05:54:15;-4.80;99.90
18173;DHT22;9211;48.818;9.312;2022-12-13T05:56:42;-4.80;99.90
18173;DHT22;9211;48.818;9.312;2022-12-13T05:59:08;-4.80;99.90
18173;DHT22;9211;48.818;9.312;2022-12-13T06:01:35;-4.70;99.90
18173;DHT22;9211;48.818;9.312;2022-12-13T06:04:02;-4.80;99.90
18173;DHT22;9211;48.818;9.312;2022-12-13T06:06:29;-4.80;99.90
18173;DHT22;9211;48.818;9.312;2022-12-13T06:08:59;-4.80;99.90
18173;DHT22;9211;48.818;9.312;2022-12-13T06:11:26;-4.80;99.90
18173;DHT22;9211;48.818;9.312;2022-12-13T06:13:53;-4.80;99.90
18173;DHT22;9211;48.818;9.312;2022-12-13T06:16:20;-4.80;99.90
18173;DHT22;9211;48.818;9.312;2022-12-13T06:18:47;-4.80;99.90
18173;DHT22;9211;48.818;9.312;2022-12-13T06:21:13;-4.80;99.90
18173;DHT22;9211;48.818;9.312;2022-12-13T06:23:40;-4.80;99.90
18173;DHT22;9211;48.818;9.312;2022-12-13T06:26:09;-5.00;99.90
18173;DHT22;9211;48.818;9.312;2022-12-13T06:28:36;-5.00;99.90
18173;DHT22;9211;48.818;9.312;2022-12-13T06:31:04;-4.90;99.90
18173;DHT22;9211;48.818;9.312;2022-12-13T06:33:31;-4.90;99.90
18173;DHT22;9211;48.818;9.312;2022-12-13T06:36:01;-4.90;99.90
18173;DHT22;9211;48.818;9.312;2022-12-13T06:38:29;-4.90;99.90
18173;DHT22;9211;48.818;9.312;2022-12-13T06:41:06;-5.00;99.90
18173;DHT22;9211;48.818;9.312;2022-12-13T06:43:34;-4.90;99.90
18173;DHT22;9211;48.818;9.312;2022-12-13T06:46:02;-5.00;99.90
18173;DHT22;9211;48.818;9.312;2022-12-13T06:48:30;-5.00;99.90
18173;DHT22;9211;48.818;9.312;2022-12-13T06:50:59;-5.00;99.90
18173;DHT22;9211;48.818;9.312;2022-12-13T06:53:27;-5.00;99.90
18173;DHT22;9211;48.818;9.312;2022-12-13T06:55:54;-5.00;99.90
18173;DHT22;9211;48.818;9.312;2022-12-13T06:58:21;-5.10;99.90
18173;DHT22;9211;48.818;9.312;2022-12-13T07:00:50;-5.10;99.90
18173;DHT22;9211;48.818;9.312;2022-12-13T07:03:26;-5.10;99.90
18173;DHT22;9211;48.818;9.312;2022-12-13T07:05:53;-5.20;99.90
18173;DHT22;9211;48.818;9.312;2022-12-13T07:08:20;-5.20;99.90
18173;DHT22;9211;48.818;9.312;2022-12-13T07:10:48;-5.20;99.90
18173;DHT22;9211;48.818;9.312;2022-12-13T07:13:15;-5.10;99.90
18173;DHT22;9211;48.818;9.312;2022-12-13T07:15:42;-5.10;99.90
18173;DHT22;9211;48.818;9.312;2022-12-13T07:18:10;-5.00;99.90
18173;DHT22;9211;48.818;9.312;2022-12-13T07:20:38;-4.90;99.90
18173;DHT22;9211;48.818;9.312;2022-12-13T07:23:05;-4.90;99.90
18173;DHT22;9211;48.818;9.312;2022-12-13T07:25:32;-4.80;99.90
18173;DHT22;9211;48.818;9.312;2022-12-13T07:28:00;-4.80;99.90
18173;DHT22;9211;48.818;9.312;2022-12-13T07:30:27;-4.80;99.90
18173;DHT22;9211;48.818;9.312;2022-12-13T07:32:54;-4.80;99.90
18173;DHT22;9211;48.818;9.312;2022-12-13T07:35:23;-4.80;99.90
18173;DHT22;9211;48.818;9.312;2022-12-13T07:37:50;-4.80;99.90
18173;DHT22;9211;48.818;9.312;2022-12-13T07:40:17;-4.70;99.90
18173;DHT22;9211;48.818;9.312;2022-12-13T07:42:48;-4.70;99.90
18173;DHT22;9211;48.818;9.312;2022-12-13T07:45:17;-4.80;99.90
18173;DHT22;9211;48.818;9.312;2022-12-13T07:47:44;-4.80;99.90
18173;DHT22;9211;48.818;9.312;2022-12-13T07:50:12;-4.80;99.90
18173;DHT22;9211;48.818;9.312;2022-12-13T07:52:40;-4.70;99.90
18173;DHT22;9211;48.818;9.312;2022-12-13T07:55:08;-4.80;99.90
18173;DHT22;9211;48.818;9.312;2022-12-13T07:57:35;-4.70;99.90
18173;DHT22;9211;48.818;9.312;2022-12-13T08:00:03;-4.70;99.90
18173;DHT22;9211;48.818;9.312;2022-12-13T08:02:38;-4.80;99.90
18173;DHT22;9211;48.818;9.312;2022-12-13T08:05:06;-4.80;99.90
18173;DHT22;9211;48.818;9.312;2022-12-13T08:07:33;-4.70;99.90
18173;DHT22;9211;48.818;9.312;2022-12-13T08:10:02;-4.50;99.90
18173;DHT22;9211;48.818;9.312;2022-12-13T08:12:30;-4.60;99.90
18173;DHT22;9211;48.818;9.312;2022-12-13T08:14:56;-4.50;99.90
18173;DHT22;9211;48.818;9.312;2022-12-13T08:17:25;-4.50;99.90
18173;DHT22;9211;48.818;9.312;2022-12-13T08:19:51;-4.40;99.90
18173;DHT22;9211;48.818;9.312;2022-12-13T08:22:18;-4.30;99.90
18173;DHT22;9211;48.818;9.312;2022-12-13T08:24:45;-4.20;99.90
18173;DHT22;9211;48.818;9.312;2022-12-13T08:27:14;-4.20;99.90
18173;DHT22;9211;48.818;9.312;2022-12-13T08:29:41;-4.10;99.90
18173;DHT22;9211;48.818;9.312;2022-12-13T08:32:09;-4.10;99.90
18173;DHT22;9211;48.818;9.312;2022-12-13T08:34:38;-4.00;99.90
18173;DHT22;9211;48.818;9.312;2022-12-13T08:37:05;-3.90;99.90
18173;DHT22;9211;48.818;9.312;2022-12-13T08:39:34;-3.80;99.90
18173;DHT22;9211;48.818;9.312;2022-12-13T08:42:02;-3.80;99.90
18173;DHT22;9211;48.818;9.312;2022-12-13T08:44:30;-3.70;99.90
18173;DHT22;9211;48.818;9.312;2022-12-13T08:46:57;-3.60;99.90
18173;DHT22;9211;48.818;9.312;2022-12-13T08:49:24;-3.60;99.90
18173;DHT22;9211;48.818;9.312;2022-12-13T08:51:51;-3.60;99.90
18173;DHT22;9211;48.818;9.312;2022-12-13T08:54:19;-3.50;99.90
18173;DHT22;9211;48.818;9.312;2022-12-13T08:56:45;-3.50;99.90
18173;DHT22;9211;48.818;9.312;2022-12-13T08:59:12;-3.50;99.90
18173;DHT22;9211;48.818;9.312;2022-12-13T09:01:41;-3.40;99.90
18173;DHT22;9211;48.818;9.312;2022-12-13T09:04:08;-3.40;99.90
18173;DHT22;9211;48.818;9.312;2022-12-13T09:06:35;-3.30;99.90
18173;DHT22;9211;48.818;9.312;2022-12-13T09:09:02;-3.30;99.90
18173;DHT22;9211;48.818;9.312;2022-12-13T09:11:29;-3.20;99.90
18173;DHT22;9211;48.818;9.312;2022-12-13T09:13:56;-3.20;99.90
18173;DHT22;9211;48.818;9.312;2022-12-13T09:16:23;-3.00;99.90
18173;DHT22;9211;48.818;9.312;2022-12-13T09:18:52;-3.00;99.90
18173;DHT22;9211;48.818;9.312;2022-12-13T09:21:19;-3.00;99.90
18173;DHT22;9211;48.818;9.312;2022-12-13T09:23:46;-2.90;99.90
18173;DHT22;9211;48.818;9.312;2022-12-13T09:26:14;-2.80;99.90
18173;DHT22;9211;48.818;9.312;2022-12-13T09:28:42;-2.80;99.90
18173;DHT22;9211;48.818;9.312;2022-12-13T09:31:10;-2.70;99.90
18173;DHT22;9211;48.818;9.312;2022-12-13T09:33:38;-2.70;99.90
18173;DHT22;9211;48.818;9.312;2022-12-13T09:36:09;-2.60;99.90
18173;DHT22;9211;48.818;9.312;2022-12-13T09:38:36;-2.50;99.90
18173;DHT22;9211;48.818;9.312;2022-12-13T09:41:12;-2.50;99.90
18173;DHT22;9211;48.818;9.312;2022-12-13T09:43:42;-2.40;99.90
18173;DHT22;9211;48.818;9.312;2022-12-13T09:46:22;-2.30;99.90
18173;DHT22;9211;48.818;9.312;2022-12-13T09:48:52;-2.30;99.90
18173;DHT22;9211;48.818;9.312;2022-12-13T09:51:23;-2.20;99.90
18173;DHT22;9211;48.818;9.312;2022-12-13T09:53:52;-2.20;99.90
18173;DHT22;9211;48.818;9.312;2022-12-13T09:56:21;-2.10;99.90
18173;DHT22;9211;48.818;9.312;2022-12-13T09:58:49;-2.00;99.90
18173;DHT22;9211;48.818;9.312;2022-12-13T10:01:17;-2.00;99.90
18173;DHT22;9211;48.818;9.312;2022-12-13T10:03:48;-2.00;99.90
18173;DHT22;9211;48.818;9.312;2022-12-13T10:06:17;-2.00;99.90
18173;DHT22;9211;48.818;9.312;2022-12-13T10:08:47;-2.00;99.90
18173;DHT22;9211;48.818;9.312;2022-12-13T10:11:18;-1.90;99.90
18173;DHT22;9211;48.818;9.312;2022-12-13T10:13:48;-1.80;99.90
18173;DHT22;9211;48.818;9.312;2022-12-13T10:16:19;-1.70;99.90
18173;DHT22;9211;48.818;9.312;2022-12-13T10:18:50;-1.60;99.90
18173;DHT22;9211;48.818;9.312;2022-12-13T10:21:24;-1.60;99.90
18173;DHT22;9211;48.818;9.312;2022-12-13T10:24:11;-1.50;99.90
18173;DHT22;9211;48.818;9.312;2022-12-13T10:26:40;-1.50;99.90
18173;DHT22;9211;48.818;9.312;2022-12-13T10:29:07;-1.40;99.90
18173;DHT22;9211;48.818;9.312;2022-12-13T10:31:39;-1.50;99.90
18173;DHT22;9211;48.818;9.312;2022-12-13T10:34:16;-1.40;99.90
18173;DHT22;9211;48.818;9.312;2022-12-13T10:36:45;-1.40;99.90
18173;DHT22;9211;48.818;9.312;2022-12-13T10:39:16;-1.40;99.90
18173;DHT22;9211;48.818;9.312;2022-12-13T10:41:43;-1.30;99.90
18173;DHT22;9211;48.818;9.312;2022-12-13T10:44:19;-1.30;99.90
18173;DHT22;9211;48.818;9.312;2022-12-13T10:46:58;-1.20;99.90
18173;DHT22;9211;48.818;9.312;2022-12-13T10:49:37;-1.30;99.90
18173;DHT22;9211;48.818;9.312;2022-12-13T10:52:07;-1.20;99.90
18173;DHT22;9211;48.818;9.312;2022-12-13T10:54:48;-1.20;99.90
18173;DHT22;9211;48.818;9.312;2022-12-13T10:57:16;-1.10;99.90
18173;DHT22;9211;48.818;9.312;2022-12-13T10:59:44;-1.10;99.90
18173;DHT22;9211;48.818;9.312;2022-12-13T11:02:28;-1.00;99.90
18173;DHT22;9211;48.818;9.312;2022-12-13T11:04:56;-1.00;99.90
18173;DHT22;9211;48.818;9.312;2022-12-13T11:07:26;-1.00;99.90
18173;DHT22;9211;48.818;9.312;2022-12-13T11:09:56;-0.90;99.90
18173;DHT22;9211;48.818;9.312;2022-12-13T11:12:24;-1.00;99.90
18173;DHT22;9211;48.818;9.312;2022-12-13T11:14:54;-0.90;99.90
18173;DHT22;9211;48.818;9.312;2022-12-13T11:17:23;-0.90;99.90
18173;DHT22;9211;48.818;9.312;2022-12-13T11:19:54;-0.90;99.90
18173;DHT22;9211;48.818;9.312;2022-12-13T11:22:24;-0.80;99.90
18173;DHT22;9211;48.818;9.312;2022-12-13T11:24:58;-0.70;99.90
18173;DHT22;9211;48.818;9.312;2022-12-13T11:27:43;-0.70;99.90
18173;DHT22;9211;48.818;9.312;2022-12-13T11:30:17;-0.60;99.90
18173;DHT22;9211;48.818;9.312;2022-12-13T11:35:46;-0.40;99.90
18173;DHT22;9211;48.818;9.312;2022-12-13T11:38:25;-0.40;99.90
18173;DHT22;9211;48.818;9.312;2022-12-13T11:40:56;-0.30;99.90
18173;DHT22;9211;48.818;9.312;2022-12-13T11:43:30;-0.30;99.90
18173;DHT22;9211;48.818;9.312;2022-12-13T11:46:03;-0.30;99.90
18173;DHT22;9211;48.818;9.312;2022-12-13T11:48:38;-0.20;99.90
18173;DHT22;9211;48.818;9.312;2022-12-13T11:51:08;-0.20;99.90
18173;DHT22;9211;48.818;9.312;2022-12-13T11:53:45;-0.20;99.90
18173;DHT22;9211;48.818;9.312;2022-12-13T11:56:20;-0.10;99.90
18173;DHT22;9211;48.818;9.312;2022-12-13T11:58:55;-0.10;99.90
18173;DHT22;9211;48.818;9.312;2022-12-13T12:01:30;0.00;99.90
18173;DHT22;9211;48.818;9.312;2022-12-13T12:04:04;-0.10;99.90
18173;DHT22;9211;48.818;9.312;2022-12-13T12:06:38;-0.10;99.90
18173;DHT22;9211;48.818;9.312;2022-12-13T12:09:11;-0.10;99.90
18173;DHT22;9211;48.818;9.312;2022-12-13T12:11:44;0.00;99.90
18173;DHT22;9211;48.818;9.312;2022-12-13T12:14:16;0.00;99.90
18173;DHT22;9211;48.818;9.312;2022-12-13T12:16:49;0.00;99.90
18173;DHT22;9211;48.818;9.312;2022-12-13T12:19:19;0.00;99.90
18173;DHT22;9211;48.818;9.312;2022-12-13T12:21:58;0.00;99.90
18173;DHT22;9211;48.818;9.312;2022-12-13T12:24:36;0.10;99.90
18173;DHT22;9211;48.818;9.312;2022-12-13T12:27:19;0.20;99.90
18173;DHT22;9211;48.818;9.312;2022-12-13T12:30:00;0.20;99.90
18173;DHT22;9211;48.818;9.312;2022-12-13T12:32:32;0.30;99.90
18173;DHT22;9211;48.818;9.312;2022-12-13T12:35:12;0.30;99.90
18173;DHT22;9211;48.818;9.312;2022-12-13T12:37:51;0.30;99.90
18173;DHT22;9211;48.818;9.312;2022-12-13T12:40:34;0.40;99.90
18173;DHT22;9211;48.818;9.312;2022-12-13T12:43:11;0.40;99.90
18173;DHT22;9211;48.818;9.312;2022-12-13T12:45:49;0.40;99.90
18173;DHT22;9211;48.818;9.312;2022-12-13T12:48:29;0.50;99.90
18173;DHT22;9211;48.818;9.312;2022-12-13T12:51:04;0.50;99.90
18173;DHT22;9211;48.818;9.312;2022-12-13T12:53:40;0.50;99.90
18173;DHT22;9211;48.818;9.312;2022-12-13T12:56:24;0.50;99.90
18173;DHT22;9211;48.818;9.312;2022-12-13T12:59:03;0.60;99.90
18173;DHT22;9211;48.818;9.312;2022-12-13T13:01:48;0.60;99.90
18173;DHT22;9211;48.818;9.312;2022-12-13T13:04:17;0.60;99.90
18173;DHT22;9211;48.818;9.312;2022-12-13T13:06:52;0.60;99.90
18173;DHT22;9211;48.818;9.312;2022-12-13T13:09:21;0.60;99.90
18173;DHT22;9211;48.818;9.312;2022-12-13T13:11:49;0.70;99.90
18173;DHT22;9211;48.818;9.312;2022-12-13T13:14:30;0.70;99.90
18173;DHT22;9211;48.818;9.312;2022-12-13T13:16:58;0.70;99.90
18173;DHT22;9211;48.818;9.312;2022-12-13T13:19:40;0.70;99.90
18173;DHT22;9211;48.818;9.312;2022-12-13T13:22:26;0.80;99.90
18173;DHT22;9211;48.818;9.312;2022-12-13T13:25:00;0.90;99.90
18173;DHT22;9211;48.818;9.312;2022-12-13T13:27:40;1.00;99.90
18173;DHT22;9211;48.818;9.312;2022-12-13T13:30:17;1.00;99.90
18173;DHT22;9211;48.818;9.312;2022-12-13T13:32:46;1.00;99.90
18173;DHT22;9211;48.818;9.312;2022-12-13T13:35:49;1.00;99.90
18173;DHT22;9211;48.818;9.312;2022-12-13T13:38:47;1.10;99.90
18173;DHT22;9211;48.818;9.312;2022-12-13T13:47:33;1.00;99.90
18173;DHT22;9211;48.818;9.312;2022-12-13T13:50:12;1.10;99.90
18173;DHT22;9211;48.818;9.312;2022-12-13T13:52:50;1.10;99.90
18173;DHT22;9211;48.818;9.312;2022-12-13T13:55:39;1.10;99.90
18173;DHT22;9211;48.818;9.312;2022-12-13T13:58:35;1.00;99.90
18173;DHT22;9211;48.818;9.312;2022-12-13T14:04:37;1.10;99.90
18173;DHT22;9211;48.818;9.312;2022-12-13T14:10:22;1.00;99.90
18173;DHT22;9211;48.818;9.312;2022-12-13T14:19:31;1.00;99.90
18173;DHT22;9211;48.818;9.312;2022-12-13T14:22:17;1.00;99.90
18173;DHT22;9211;48.818;9.312;2022-12-13T14:25:00;1.00;99.90
18173;DHT22;9211;48.818;9.312;2022-12-13T14:27:40;0.90;99.90
18173;DHT22;9211;48.818;9.312;2022-12-13T14:30:12;0.90;99.90
18173;DHT22;9211;48.818;9.312;2022-12-13T14:32:40;0.80;99.90
18173;DHT22;9211;48.818;9.312;2022-12-13T14:35:22;0.80;99.90
18173;DHT22;9211;48.818;9.312;2022-12-13T14:37:54;0.80;99.90
18173;DHT22;9211;48.818;9.312;2022-12-13T14:40:26;0.90;99.90
18173;DHT22;9211;48.818;9.312;2022-12-13T14:42:53;0.80;99.90
18173;DHT22;9211;48.818;9.312;2022-12-13T14:45:22;0.80;99.90
18173;DHT22;9211;48.818;9.312;2022-12-13T14:47:51;0.80;99.90
18173;DHT22;9211;48.818;9.312;2022-12-13T14:50:20;0.80;99.90
18173;DHT22;9211;48.818;9.312;2022-12-13T14:52:48;0.70;99.90
18173;DHT22;9211;48.818;9.312;2022-12-13T14:55:33;0.70;99.90
18173;DHT22;9211;48.818;9.312;2022-12-13T14:58:13;0.70;99.90
18173;DHT22;9211;48.818;9.312;2022-12-13T15:00:41;0.70;99.90
18173;DHT22;9211;48.818;9.312;2022-12-13T15:03:19;0.60;99.90
18173;DHT22;9211;48.818;9.312;2022-12-13T15:05:52;0.60;99.90
18173;DHT22;9211;48.818;9.312;2022-12-13T15:08:20;0.60;99.90
18173;DHT22;9211;48.818;9.312;2022-12-13T15:10:50;0.50;99.90
18173;DHT22;9211;48.818;9.312;2022-12-13T15:13:26;0.50;99.90
18173;DHT22;9211;48.818;9.312;2022-12-13T15:15:56;0.40;99.90
18173;DHT22;9211;48.818;9.312;2022-12-13T15:18:32;0.40;99.90
18173;DHT22;9211;48.818;9.312;2022-12-13T15:21:18;0.40;99.90
18173;DHT22;9211;48.818;9.312;2022-12-13T15:23:46;0.40;99.90
18173;DHT22;9211;48.818;9.312;2022-12-13T15:26:16;0.40;99.90
18173;DHT22;9211;48.818;9.312;2022-12-13T15:28:46;0.30;99.90
18173;DHT22;9211;48.818;9.312;2022-12-13T15:31:16;0.30;99.90
18173;DHT22;9211;48.818;9.312;2022-12-13T15:33:44;0.30;99.90
18173;DHT22;9211;48.818;9.312;2022-12-13T15:36:14;0.20;99.90
18173;DHT22;9211;48.818;9.312;2022-12-13T15:38:48;0.20;99.90
18173;DHT22;9211;48.818;9.312;2022-12-13T15:41:17;0.20;99.90
18173;DHT22;9211;48.818;9.312;2022-12-13T15:43:46;0.10;99.90
18173;DHT22;9211;48.818;9.312;2022-12-13T15:46:14;0.10;99.90
18173;DHT22;9211;48.818;9.312;2022-12-13T15:48:49;0.10;99.90
18173;DHT22;9211;48.818;9.312;2022-12-13T15:51:18;0.10;99.90
18173;DHT22;9211;48.818;9.312;2022-12-13T15:54:00;0.10;99.90
18173;DHT22;9211;48.818;9.312;2022-12-13T15:56:30;0.10;99.90
18173;DHT22;9211;48.818;9.312;2022-12-13T15:58:57;0.00;99.90
18173;DHT22;9211;48.818;9.312;2022-12-13T16:01:25;0.00;99.90
18173;DHT22;9211;48.818;9.312;2022-12-13T16:03:53;0.00;99.90
18173;DHT22;9211;48.818;9.312;2022-12-13T16:06:22;0.00;99.90
18173;DHT22;9211;48.818;9.312;2022-12-13T16:08:53;0.00;99.90
18173;DHT22;9211;48.818;9.312;2022-12-13T16:11:27;0.00;99.90
18173;DHT22;9211;48.818;9.312;2022-12-13T16:16:57;-0.10;99.90
18173;DHT22;9211;48.818;9.312;2022-12-13T16:19:25;-0.10;99.90
18173;DHT22;9211;48.818;9.312;2022-12-13T16:21:54;-0.10;99.90
18173;DHT22;9211;48.818;9.312;2022-12-13T16:24:21;-0.10;99.90
18173;DHT22;9211;48.818;9.312;2022-12-13T16:26:48;-0.10;99.90
18173;DHT22;9211;48.818;9.312;2022-12-13T16:29:16;-0.10;99.90
18173;DHT22;9211;48.818;9.312;2022-12-13T16:31:44;-0.20;99.90
18173;DHT22;9211;48.818;9.312;2022-12-13T16:34:12;-0.10;99.90
18173;DHT22;9211;48.818;9.312;2022-12-13T16:36:39;-0.20;99.90
18173;DHT22;9211;48.818;9.312;2022-12-13T16:39:10;-0.20;99.90
18173;DHT22;9211;48.818;9.312;2022-12-13T16:41:39;-0.30;99.90
18173;DHT22;9211;48.818;9.312;2022-12-13T16:44:08;-0.20;99.90
18173;DHT22;9211;48.818;9.312;2022-12-13T16:46:39;-0.30;99.90
18173;DHT22;9211;48.818;9.312;2022-12-13T16:49:17;-0.30;99.90